createdAt,value
2018-05-06T06:07:32.699Z,99289.55
2018-05-06T06:10:01.627Z,99291.13
2018-05-06T06:12:29.757Z,99292.20
2018-05-06T06:14:57.903Z,99289.80
2018-05-06T06:17:26.129Z,99290.75
2018-05-06T06:19:54.318Z,99296.16
2018-05-06T06:22:22.984Z,99288.47
2018-05-06T06:24:51.117Z,99281.81
2018-05-06T06:27:19.226Z,99285.43
2018-05-06T06:29:47.355Z,99286.95
2018-05-06T06:32:15.477Z,99290.27
2018-05-06T06:34:43.659Z,99285.06
2018-05-06T06:37:11.777Z,99281.68
2018-05-06T06:39:39.894Z,99287.51
2018-05-06T06:42:09.168Z,99278.92
2018-05-06T06:44:37.308Z,99281.27
2018-05-06T06:47:05.434Z,99282.11
2018-05-06T06:49:33.561Z,99281.36
2018-05-06T06:52:01.692Z,99276.75
2018-05-06T06:54:29.847Z,99275.02
2018-05-06T06:56:57.988Z,99272.23
2018-05-06T06:59:26.101Z,99273.48
2018-05-06T07:01:54.207Z,99274.05
2018-05-06T07:04:22.359Z,99283.09
2018-05-06T07:06:50.472Z,99273.14
2018-05-06T07:09:18.612Z,99278.39
2018-05-06T07:11:46.709Z,99275.28
2018-05-06T07:14:14.859Z,99277.97
2018-05-06T07:16:42.980Z,99279.19
2018-05-06T07:19:11.157Z,99272.06
2018-05-06T07:21:39.235Z,99278.11
2018-05-06T07:24:07.357Z,99270.84
2018-05-06T07:26:35.473Z,99268.54
2018-05-06T07:29:03.599Z,99269.47
2018-05-06T07:31:31.721Z,99269.59
2018-05-06T07:33:59.846Z,99270.22
2018-05-06T07:36:27.989Z,99265.09
2018-05-06T07:38:56.106Z,99266.65
2018-05-06T07:41:24.277Z,99263.17
2018-05-06T07:43:52.366Z,99261.27
2018-05-06T07:46:20.487Z,99264.69
2018-05-06T07:48:48.603Z,99267.06
2018-05-06T07:51:16.726Z,99258.82
2018-05-06T07:53:44.832Z,99263.50
2018-05-06T07:56:12.958Z,99264.27
2018-05-06T07:58:41.081Z,99260.58
2018-05-06T08:01:09.194Z,99263.44
2018-05-06T08:03:37.301Z,99263.02
2018-05-06T08:06:05.449Z,99262.67
2018-05-06T08:08:33.577Z,99263.08
2018-05-06T08:11:01.680Z,99254.27
2018-05-06T08:13:29.825Z,99254.88
2018-05-06T08:15:57.966Z,99258.02
2018-05-06T08:18:26.096Z,99254.48
2018-05-06T08:20:54.361Z,99250.70
2018-05-06T08:23:22.490Z,99255.55
2018-05-06T08:25:50.609Z,99256.77
2018-05-06T08:28:18.737Z,99252.70
2018-05-06T08:30:46.856Z,99250.36
2018-05-06T08:33:14.984Z,99248.30
2018-05-06T08:35:43.126Z,99242.02
2018-05-06T08:38:11.264Z,99242.20
2018-05-06T08:40:39.388Z,99246.27
2018-05-06T08:43:08.441Z,99239.83
2018-05-06T08:45:36.691Z,99236.02
2018-05-06T08:48:04.813Z,99231.55
2018-05-06T08:50:33.112Z,99229.31
2018-05-06T08:53:01.301Z,99224.64
2018-05-06T08:55:29.524Z,99223.70
2018-05-06T08:57:57.696Z,99223.23
2018-05-06T09:00:25.802Z,99212.81
2018-05-06T09:02:53.907Z,99220.76
2018-05-06T09:05:22.089Z,99216.12
2018-05-06T09:07:50.237Z,99210.24
2018-05-06T09:10:18.375Z,99205.95
2018-05-06T09:12:46.544Z,99207.62
2018-05-06T09:15:14.670Z,99210.08
2018-05-06T09:17:42.779Z,99207.98
2018-05-06T09:20:11.318Z,99207.37
2018-05-06T09:22:39.449Z,99210.41
2018-05-06T09:25:07.566Z,99204.30
2018-05-06T09:27:35.745Z,99209.39
2018-05-06T09:30:03.873Z,99207.85
2018-05-06T09:32:31.999Z,99192.81
2018-05-06T09:35:00.293Z,99198.25
2018-05-06T09:37:28.454Z,99199.45
2018-05-06T09:39:56.588Z,99196.35
2018-05-06T09:42:24.732Z,99196.34
2018-05-06T09:44:52.858Z,99193.28
2018-05-06T09:47:20.979Z,99196.74
2018-05-06T09:49:49.132Z,99194.66
2018-05-06T09:52:17.253Z,99197.91
2018-05-06T09:54:45.364Z,99198.13
2018-05-06T09:57:13.639Z,99198.17
2018-05-06T09:59:41.753Z,99191.88
2018-05-06T10:02:09.915Z,99195.02
2018-05-06T10:04:38.067Z,99191.80
2018-05-06T10:07:06.324Z,99188.22
2018-05-06T10:09:34.432Z,99179.17
2018-05-06T10:12:02.580Z,99186.66
2018-05-06T10:14:30.687Z,99185.70
2018-05-06T10:16:58.799Z,99183.46
2018-05-06T10:19:26.951Z,99180.80
2018-05-06T10:21:55.079Z,99177.59
2018-05-06T10:24:23.190Z,99170.80
2018-05-06T10:26:51.489Z,99179.13
2018-05-06T10:29:19.595Z,99171.03
2018-05-06T10:31:47.714Z,99166.95
2018-05-06T10:34:15.888Z,99168.64
2018-05-06T10:36:44.004Z,99164.09
2018-05-06T10:39:12.126Z,99157.59
2018-05-06T10:41:40.279Z,99150.20
2018-05-06T10:44:08.496Z,99159.10
2018-05-06T10:46:36.523Z,99152.05
2018-05-06T10:49:04.818Z,99152.50
2018-05-06T10:51:32.829Z,99145.64
2018-05-06T10:54:00.946Z,99140.85
2018-05-06T10:56:29.242Z,99135.49
2018-05-06T10:58:57.381Z,99132.37
2018-05-06T11:01:25.491Z,99130.19
2018-05-06T11:03:53.692Z,99127.05
2018-05-06T11:06:21.789Z,99130.19
2018-05-06T11:08:49.917Z,99123.94
2018-05-06T11:11:18.063Z,99121.31
2018-05-06T11:13:46.193Z,99117.32
2018-05-06T11:16:14.342Z,99115.80
2018-05-06T11:18:42.500Z,99114.09
2018-05-06T11:21:10.632Z,99117.06
2018-05-06T11:23:38.763Z,99112.73
2018-05-06T11:26:07.059Z,99115.05
2018-05-06T11:28:35.183Z,99107.18
2018-05-06T11:31:03.297Z,99101.59
2018-05-06T11:33:31.447Z,99106.86
2018-05-06T11:35:59.577Z,99097.88
2018-05-06T11:38:27.697Z,99095.85
2018-05-06T11:40:55.960Z,99095.20
2018-05-06T11:43:24.016Z,99093.81
2018-05-06T11:45:52.134Z,99082.94
2018-05-06T11:48:20.269Z,99085.19
2018-05-06T11:50:48.380Z,99086.80
2018-05-06T11:53:16.520Z,99076.41
2018-05-06T11:55:44.807Z,99080.31
2018-05-06T11:58:12.959Z,99080.36
2018-05-06T12:00:41.131Z,99073.27
2018-05-06T12:03:10.258Z,99071.87
2018-05-06T12:05:38.362Z,99065.28
2018-05-06T12:08:06.511Z,99073.70
2018-05-06T12:10:34.762Z,99063.20
2018-05-06T12:13:02.868Z,99066.80
2018-05-06T12:15:30.981Z,99064.44
2018-05-06T12:17:59.142Z,99063.69
2018-05-06T12:20:27.301Z,99059.53
2018-05-06T12:22:55.441Z,99062.11
2018-05-06T12:25:23.583Z,99063.36
2018-05-06T12:27:51.693Z,99062.27
2018-05-06T12:30:19.827Z,99047.06
2018-05-06T12:32:47.990Z,99046.60
2018-05-06T12:35:16.119Z,99045.95
2018-05-06T12:37:44.227Z,99041.44
2018-05-06T12:40:12.521Z,99041.39
2018-05-06T12:42:40.633Z,99035.67
2018-05-06T12:45:08.767Z,99041.39
2018-05-06T12:47:36.916Z,99033.80
2018-05-06T12:50:05.034Z,99038.52
2018-05-06T12:52:33.156Z,99029.81
2018-05-06T12:55:01.301Z,99030.59
2018-05-06T12:57:30.179Z,99031.80
2018-05-06T12:59:58.307Z,99030.89
2018-05-06T13:02:26.527Z,99022.55
2018-05-06T13:04:54.599Z,99018.25
2018-05-06T13:07:22.732Z,99019.63
2018-05-06T13:09:51.005Z,99015.67
2018-05-06T13:12:19.110Z,99013.45
2018-05-06T13:14:47.240Z,99008.48
2018-05-06T13:17:15.390Z,99006.89
2018-05-06T13:19:43.502Z,99006.36
2018-05-06T13:22:11.615Z,99002.17
2018-05-06T13:24:39.745Z,98998.52
2018-05-06T13:27:07.924Z,98996.31
2018-05-06T13:29:36.040Z,98994.77
2018-05-06T13:32:04.193Z,98998.93
2018-05-06T13:34:32.318Z,98991.00
2018-05-06T13:37:00.442Z,98994.13
2018-05-06T13:39:28.714Z,98990.20
2018-05-06T13:41:56.849Z,98988.77
2018-05-06T13:44:24.967Z,98987.83
2018-05-06T13:46:53.099Z,98978.07
2018-05-06T13:49:21.270Z,98979.87
2018-05-06T13:51:49.383Z,98979.63
2018-05-06T13:54:17.520Z,98985.59
2018-05-06T13:56:45.640Z,98980.72
2018-05-06T13:59:13.753Z,98973.98
2018-05-06T14:01:41.890Z,98973.13
2018-05-06T14:04:09.997Z,98976.57
2018-05-06T14:06:38.124Z,98976.02
2018-05-06T14:09:06.445Z,98968.63
2018-05-06T14:11:34.477Z,98963.43
2018-05-06T14:14:02.612Z,98968.79
2018-05-06T14:16:30.901Z,98959.59
2018-05-06T14:18:59.028Z,98954.05
2018-05-06T14:21:27.140Z,98950.23
2018-05-06T14:23:55.290Z,98947.52
2018-05-06T14:26:23.399Z,98947.15
2018-05-06T14:28:51.523Z,98947.38
2018-05-06T14:31:19.659Z,98940.33
2018-05-06T14:33:47.788Z,98939.87
2018-05-06T14:36:15.909Z,98940.96
2018-05-06T14:38:44.066Z,98935.91
2018-05-06T14:41:12.303Z,98931.39
2018-05-06T14:43:40.472Z,98933.34
2018-05-06T14:46:09.268Z,98941.22
2018-05-06T14:48:37.410Z,98937.66
2018-05-06T14:51:05.536Z,98934.70
2018-05-06T14:53:33.678Z,98934.03
2018-05-06T14:56:01.854Z,98936.02
2018-05-06T14:58:29.918Z,98937.62
2018-05-06T15:00:58.197Z,98938.33
2018-05-06T15:03:26.306Z,98934.03
2018-05-06T15:05:54.434Z,98931.56
2018-05-06T15:08:22.590Z,98931.56
2018-05-06T15:10:50.706Z,98924.94
2018-05-06T15:13:18.836Z,98922.42
2018-05-06T15:15:47.043Z,98924.22
2018-05-06T15:18:15.113Z,98926.20
2018-05-06T15:20:43.232Z,98926.48
2018-05-06T15:23:11.555Z,98927.09
2018-05-06T15:25:39.670Z,98927.59
2018-05-06T15:28:07.795Z,98923.14
2018-05-06T15:30:35.916Z,98925.62
2018-05-06T15:33:04.035Z,98919.67
2018-05-06T15:35:32.147Z,98916.94
2018-05-06T15:38:00.259Z,98918.61
2018-05-06T15:40:28.383Z,98918.92
2018-05-06T15:42:56.493Z,98920.08
2018-05-06T15:45:24.626Z,98907.97
2018-05-06T15:47:52.742Z,98910.82
2018-05-06T15:50:20.886Z,98909.05
2018-05-06T15:52:49.071Z,98905.77
2018-05-06T15:55:17.192Z,98912.13
2018-05-06T15:57:45.301Z,98910.05
2018-05-06T16:00:13.460Z,98905.41
2018-05-06T16:02:58.238Z,98911.56
2018-05-06T16:05:26.378Z,98909.98
2018-05-06T16:07:54.489Z,98906.42
2018-05-06T16:10:22.598Z,98914.91
2018-05-06T16:12:50.737Z,98909.42
2018-05-06T16:15:18.873Z,98907.92
2018-05-06T16:17:47.003Z,98906.96
2018-05-06T16:20:15.315Z,98913.77
2018-05-06T16:22:43.431Z,98915.47
2018-05-06T16:25:11.543Z,98911.16
2018-05-06T16:27:39.692Z,98912.02
2018-05-06T16:30:07.825Z,98902.97
2018-05-06T16:32:35.938Z,98904.75
2018-05-06T16:35:04.084Z,98912.28
2018-05-06T16:37:32.195Z,98913.02
2018-05-06T16:40:00.334Z,98909.34
2018-05-06T16:42:28.450Z,98913.66
2018-05-06T16:44:56.565Z,98909.48
2018-05-06T16:47:24.675Z,98907.73
2018-05-06T16:49:52.802Z,98911.09
2018-05-06T16:52:20.934Z,98911.41
2018-05-06T16:54:49.060Z,98912.53
2018-05-06T16:57:17.207Z,98913.50
2018-05-06T16:59:45.324Z,98914.20
2018-05-06T17:02:13.439Z,98912.86
2018-05-06T17:04:41.555Z,98912.04
2018-05-06T17:07:10.393Z,98908.60
2018-05-06T17:09:38.493Z,98912.77
2018-05-06T17:12:07.109Z,98916.28
2018-05-06T17:14:35.240Z,98911.17
2018-05-06T17:17:03.358Z,98914.59
2018-05-06T17:19:31.491Z,98914.08
2018-05-06T17:21:59.646Z,98916.75
2018-05-06T17:24:27.733Z,98916.89
2018-05-06T17:26:55.863Z,98925.55
2018-05-06T17:29:23.991Z,98922.20
2018-05-06T17:31:52.128Z,98932.40
2018-05-06T17:34:20.299Z,98937.88
2018-05-06T17:36:48.752Z,98937.88
2018-05-06T17:39:16.896Z,98936.41
2018-05-06T17:41:45.011Z,98936.11
2018-05-06T17:44:13.204Z,98943.32
2018-05-06T17:46:41.322Z,98939.34
2018-05-06T17:49:09.763Z,98940.02
2018-05-06T17:51:37.895Z,98939.49
2018-05-06T17:54:06.023Z,98950.56
2018-05-06T17:56:34.171Z,98954.20
2018-05-06T17:59:02.280Z,98952.75
2018-05-06T18:01:30.388Z,98963.64
2018-05-06T18:03:58.519Z,98966.19
2018-05-06T18:06:26.642Z,98963.87
2018-05-06T18:08:54.762Z,98967.19
2018-05-06T18:11:22.919Z,98962.22
2018-05-06T18:13:51.023Z,98963.02
2018-05-06T18:16:19.135Z,98965.09
2018-05-06T18:18:47.280Z,98966.36
2018-05-06T18:21:15.411Z,98968.22
2018-05-06T18:23:43.520Z,98967.92
2018-05-06T18:26:11.659Z,98973.13
2018-05-06T18:28:39.774Z,98970.83
2018-05-06T18:31:07.984Z,98969.70
2018-05-06T18:33:36.118Z,98967.82
2018-05-06T18:36:04.232Z,98973.89
2018-05-06T18:38:32.338Z,98976.81
2018-05-06T18:41:00.487Z,98978.23
2018-05-06T18:43:28.634Z,98981.86
2018-05-06T18:45:56.751Z,98993.06
2018-05-06T18:48:24.887Z,98994.18
2018-05-06T18:50:53.004Z,98995.03
2018-05-06T18:53:21.138Z,98997.13
2018-05-06T18:55:49.269Z,99003.88
2018-05-06T18:58:17.457Z,99005.66
2018-05-06T19:00:45.495Z,99008.72
2018-05-06T19:03:13.620Z,99019.71
2018-05-06T19:05:41.728Z,99008.05
2018-05-06T19:08:09.850Z,99014.26
2018-05-06T19:10:37.990Z,99015.58
2018-05-06T19:13:06.216Z,99016.05
2018-05-06T19:15:34.354Z,99020.84
2018-05-06T19:18:02.483Z,99021.59
2018-05-06T19:20:30.600Z,99025.11
2018-05-06T19:22:58.707Z,99022.73
2018-05-06T19:25:26.839Z,99032.37
2018-05-06T19:27:54.950Z,99025.41
2018-05-06T19:30:23.144Z,99029.64
2018-05-06T19:32:52.192Z,99031.74
2018-05-06T19:35:20.260Z,99036.66
2018-05-06T19:37:48.444Z,99037.62
2018-05-06T19:40:16.675Z,99036.14
2018-05-06T19:42:44.788Z,99040.98
2018-05-06T19:45:12.927Z,99042.79
2018-05-06T19:47:41.084Z,99033.66
2018-05-06T19:50:09.197Z,99041.92
2018-05-06T19:52:37.336Z,99039.25
2018-05-06T19:55:05.530Z,99046.42
2018-05-06T19:57:33.646Z,99044.39
2018-05-06T20:00:01.765Z,99049.00
2018-05-06T20:02:29.936Z,99045.64
2018-05-06T20:04:58.040Z,99051.83
2018-05-06T20:07:26.167Z,99058.02
2018-05-06T20:09:54.331Z,99066.91
2018-05-06T20:12:22.440Z,99073.52
2018-05-06T20:14:50.578Z,99072.97
2018-05-06T20:17:18.720Z,99074.86
2018-05-06T20:19:46.846Z,99076.08
2018-05-06T20:22:14.980Z,99075.14
2018-05-06T20:24:43.157Z,99079.30
2018-05-06T20:27:11.985Z,99082.53
2018-05-06T20:29:40.111Z,99088.16
2018-05-06T20:32:08.263Z,99086.56
2018-05-06T20:34:36.379Z,99086.97
2018-05-06T20:37:04.495Z,99080.66
2018-05-06T20:39:32.637Z,99086.41
2018-05-06T20:42:00.755Z,99093.13
2018-05-06T20:44:28.872Z,99094.47
2018-05-06T20:46:57.015Z,99102.53
2018-05-06T20:49:25.130Z,99103.47
2018-05-06T20:51:53.247Z,99108.95
2018-05-06T20:54:21.375Z,99108.50
2018-05-06T20:56:50.569Z,99112.60
2018-05-06T20:59:20.553Z,99115.27
2018-05-06T21:01:48.944Z,99119.41
2018-05-06T21:04:17.066Z,99126.91
2018-05-06T21:06:45.200Z,99122.87
2018-05-06T21:09:13.334Z,99126.47
2018-05-06T21:11:41.457Z,99121.56
2018-05-06T21:14:09.575Z,99126.50
2018-05-06T21:16:37.726Z,99120.88
2018-05-06T21:19:06.045Z,99125.67
2018-05-06T21:21:34.128Z,99124.30
2018-05-06T21:24:02.414Z,99118.36
2018-05-06T21:26:30.545Z,99119.63
2018-05-06T21:28:58.658Z,99119.62
2018-05-06T21:31:26.822Z,99117.45
2018-05-06T21:33:54.937Z,99120.28
2018-05-06T21:36:23.055Z,99113.67
2018-05-06T21:38:51.199Z,99120.89
2018-05-06T21:41:19.307Z,99120.19
2018-05-06T21:43:47.431Z,99122.22
2018-05-06T21:46:15.579Z,99118.41
2018-05-06T21:48:43.692Z,99122.03
2018-05-06T21:51:11.817Z,99120.25
2018-05-06T21:53:39.959Z,99123.85
2018-05-06T21:56:08.069Z,99120.22
2018-05-06T21:58:36.203Z,99125.30
2018-05-06T22:01:04.352Z,99125.80
2018-05-06T22:03:32.456Z,99124.84
2018-05-06T22:06:00.577Z,99126.14
2018-05-06T22:08:28.730Z,99126.00
2018-05-06T22:10:56.860Z,99128.80
2018-05-06T22:13:24.965Z,99126.58
2018-05-06T22:15:53.134Z,99131.08
2018-05-06T22:18:21.259Z,99126.42
2018-05-06T22:20:49.383Z,99125.73
2018-05-06T22:23:17.693Z,99127.99
2018-05-06T22:25:45.811Z,99117.87
2018-05-06T22:28:13.926Z,99112.95
2018-05-06T22:30:42.093Z,99118.78
2018-05-06T22:33:10.208Z,99115.41
2018-05-06T22:35:38.339Z,99114.05
2018-05-06T22:38:06.462Z,99109.71
2018-05-06T22:40:34.584Z,99113.45
2018-05-06T22:43:02.707Z,99110.74
2018-05-06T22:45:30.867Z,99117.53
2018-05-06T22:47:58.976Z,99107.70
2018-05-06T22:50:27.180Z,99111.52
2018-05-06T22:52:55.314Z,99112.83
2018-05-06T22:55:23.432Z,99106.29
2018-05-06T22:57:51.551Z,99109.70
2018-05-06T23:00:19.751Z,99109.65
2018-05-06T23:02:47.839Z,99105.16
2018-05-06T23:05:15.976Z,99104.58
2018-05-06T23:07:44.130Z,99103.48
2018-05-06T23:10:12.245Z,99098.85
2018-05-06T23:12:40.361Z,99106.88
2018-05-06T23:15:08.535Z,99104.80
2018-05-06T23:17:36.663Z,99101.72
2018-05-06T23:20:04.782Z,99100.89
2018-05-06T23:22:32.926Z,99100.78
2018-05-06T23:25:01.060Z,99099.34
2018-05-06T23:27:29.166Z,99089.95
2018-05-06T23:29:57.587Z,99088.50
2018-05-06T23:32:25.603Z,99093.00
2018-05-06T23:34:53.718Z,99092.33
2018-05-06T23:37:21.981Z,99085.91
2018-05-06T23:39:50.104Z,99087.39
2018-05-06T23:42:18.216Z,99091.26
2018-05-06T23:44:46.384Z,99090.30
2018-05-06T23:47:14.512Z,99087.59
2018-05-06T23:49:42.701Z,99086.89
2018-05-06T23:52:10.791Z,99080.16
2018-05-06T23:54:38.907Z,99080.51
2018-05-06T23:57:07.103Z,99079.33
2018-05-06T23:59:35.252Z,99080.23
